createdAt,value
2018-09-26T04:58:22.987Z,103203.41
2018-09-26T05:09:08.345Z,103212.73
2018-09-26T05:40:25.200Z,103209.53
2018-09-26T05:45:47.312Z,103199.13
2018-09-26T05:51:15.141Z,103205.42
2018-09-26T05:56:40.833Z,103200.91
2018-09-26T06:02:01.923Z,103194.89
2018-09-26T06:07:31.007Z,103181.30
2018-09-26T06:13:09.466Z,103175.50
2018-09-26T06:18:30.355Z,103180.91
2018-09-26T06:29:13.004Z,103189.08
2018-09-26T06:34:43.725Z,103183.13
2018-09-26T06:45:51.249Z,103165.37
2018-09-26T06:51:13.640Z,103173.94
2018-09-26T06:56:24.372Z,103181.34
2018-09-26T07:01:36.832Z,103193.34
2018-09-26T07:06:44.985Z,103196.13
2018-09-26T07:11:52.231Z,103194.80
2018-09-26T07:16:57.473Z,103208.59
2018-09-26T07:22:01.817Z,103208.52
2018-09-26T07:27:08.679Z,103208.04
2018-09-26T07:32:13.317Z,103204.28
2018-09-26T07:37:17.928Z,103194.14
2018-09-26T07:42:16.382Z,103199.00
2018-09-26T07:47:23.244Z,103200.91
2018-09-26T07:52:21.426Z,103197.03
2018-09-26T07:57:22.512Z,103191.14
2018-09-26T08:02:20.781Z,103198.84
2018-09-26T08:07:24.425Z,103200.31
2018-09-26T08:12:22.291Z,103201.70
2018-09-26T08:17:19.603Z,103202.84
2018-09-26T08:22:18.413Z,103191.27
2018-09-26T08:27:16.689Z,103182.63
2018-09-26T08:32:08.722Z,103186.61
2018-09-26T08:37:00.795Z,103182.39
2018-09-26T08:41:54.981Z,103193.20
2018-09-26T08:46:48.602Z,103181.98
2018-09-26T08:51:42.257Z,103185.22
2018-09-26T08:56:35.882Z,103183.95
2018-09-26T09:01:28.953Z,103167.48
2018-09-26T09:06:28.359Z,103159.34
2018-09-26T09:11:19.104Z,103164.75
2018-09-26T09:16:10.653Z,103175.07
2018-09-26T09:21:10.241Z,103185.48
2018-09-26T09:26:09.060Z,103184.81
2018-09-26T09:31:01.341Z,103182.64
2018-09-26T09:35:55.155Z,103187.45
2018-09-26T09:40:46.846Z,103175.44
2018-09-26T09:45:41.504Z,103175.45
2018-09-26T09:50:33.629Z,103174.69
2018-09-26T09:55:28.263Z,103168.14
2018-09-26T10:00:22.980Z,103159.00
2018-09-26T10:05:14.005Z,103153.33
2018-09-26T10:10:07.864Z,103153.17
2018-09-26T10:15:00.293Z,103159.64
2018-09-26T10:19:52.426Z,103154.80
2018-09-26T10:24:44.038Z,103150.57
2018-09-26T10:29:45.974Z,103156.31
2018-09-26T10:34:36.473Z,103143.52
2018-09-26T10:39:28.363Z,103152.42
2018-09-26T10:44:22.545Z,103144.28
2018-09-26T10:49:15.217Z,103138.80
2018-09-26T10:54:07.200Z,103137.75
2018-09-26T10:58:58.235Z,103122.34
2018-09-26T11:03:52.169Z,103122.92
2018-09-26T11:08:46.314Z,103122.48
2018-09-26T11:13:37.417Z,103116.52
2018-09-26T11:18:32.676Z,103106.05
2018-09-26T11:23:26.599Z,103096.64
2018-09-26T11:28:19.104Z,103084.09
2018-09-26T11:33:11.359Z,103069.34
2018-09-26T11:38:03.662Z,103067.84
2018-09-26T11:42:55.208Z,103065.53
2018-09-26T11:47:46.433Z,103064.55
2018-09-26T11:52:38.963Z,103063.52
2018-09-26T11:57:31.483Z,103059.76
2018-09-26T12:02:25.653Z,103060.83
2018-09-26T12:07:18.003Z,103054.17
2018-09-26T12:12:09.967Z,103044.52
2018-09-26T12:17:01.416Z,103048.11
2018-09-26T12:21:57.251Z,103033.06
2018-09-26T12:26:52.520Z,103020.48
2018-09-26T12:31:44.151Z,103010.97
2018-09-26T12:36:37.952Z,103003.39
2018-09-26T12:41:39.510Z,103002.10
2018-09-26T12:46:28.893Z,102995.20
2018-09-26T12:51:20.610Z,102990.67
2018-09-26T12:56:13.489Z,102989.18
2018-09-26T13:01:07.371Z,102985.28
2018-09-26T13:06:17.242Z,102979.14
2018-09-26T13:11:08.862Z,102978.23
2018-09-26T13:16:01.995Z,102975.75
2018-09-26T13:20:53.096Z,102966.50
2018-09-26T13:25:45.279Z,102965.70
2018-09-26T13:30:39.500Z,102956.52
2018-09-26T13:35:35.919Z,102947.83
2018-09-26T13:40:29.383Z,102944.02
2018-09-26T13:45:20.324Z,102946.64
2018-09-26T13:50:12.557Z,102944.81
2018-09-26T13:51:25.467Z,102948.44
2018-09-26T13:54:15.407Z,102946.69
2018-09-26T13:59:08.460Z,102935.09
2018-09-26T14:04:01.890Z,102925.05
2018-09-26T14:09:03.102Z,102926.48
2018-09-26T14:13:55.868Z,102916.42
2018-09-26T14:18:48.301Z,102916.95
2018-09-26T14:23:42.642Z,102909.61
2018-09-26T14:28:36.606Z,102898.88
2018-09-26T14:33:36.207Z,102913.19
2018-09-26T14:38:27.033Z,102900.08
2018-09-26T14:43:18.073Z,102900.75
2018-09-26T14:48:19.478Z,102906.04
2018-09-26T14:53:09.071Z,102899.56
2018-09-26T14:58:02.294Z,102885.30
2018-09-26T15:02:53.575Z,102879.16
2018-09-26T15:07:47.135Z,102879.45
2018-09-26T15:12:37.718Z,102879.83
2018-09-26T15:17:31.619Z,102882.70
2018-09-26T15:22:23.514Z,102880.42
2018-09-26T15:27:14.512Z,102876.58
2018-09-26T15:32:08.584Z,102873.83
2018-09-26T15:36:59.727Z,102876.87
2018-09-26T15:41:51.336Z,102874.45
2018-09-26T15:46:43.114Z,102873.30
2018-09-26T15:51:35.199Z,102871.98
2018-09-26T15:56:27.589Z,102873.70
2018-09-26T16:01:19.081Z,102873.95
2018-09-26T16:06:12.049Z,102871.48
2018-09-26T16:11:03.577Z,102868.05
2018-09-26T16:15:55.645Z,102861.08
2018-09-26T16:20:47.399Z,102855.80
2018-09-26T16:25:39.750Z,102847.70
2018-09-26T16:30:30.823Z,102846.05
2018-09-26T16:35:22.640Z,102844.08
2018-09-26T16:40:14.072Z,102856.44
2018-09-26T16:45:05.768Z,102855.24
2018-09-26T16:49:57.251Z,102857.11
2018-09-26T16:54:48.856Z,102859.63
2018-09-26T16:59:40.711Z,102862.02
2018-09-26T17:04:32.433Z,102865.08
2018-09-26T17:09:24.105Z,102864.14
2018-09-26T17:14:19.406Z,102864.37
2018-09-26T17:19:10.818Z,102866.33
2018-09-26T17:24:03.053Z,102867.27
2018-09-26T17:28:56.659Z,102871.31
2018-09-26T17:31:26.449Z,102866.20
2018-09-26T17:36:21.527Z,102865.33
2018-09-26T17:41:12.346Z,102860.10
2018-09-26T17:46:04.294Z,102862.16
2018-09-26T17:50:55.906Z,102859.05
2018-09-26T17:55:50.575Z,102861.02
2018-09-26T18:00:41.521Z,102859.88
2018-09-26T18:05:35.236Z,102859.33
2018-09-26T18:10:29.454Z,102860.59
2018-09-26T18:15:21.254Z,102865.39
2018-09-26T18:20:17.719Z,102870.30
2018-09-26T18:25:07.103Z,102880.77
2018-09-26T18:30:01.763Z,102883.36
2018-09-26T18:34:55.794Z,102889.05
2018-09-26T18:39:48.478Z,102894.14
2018-09-26T18:44:41.487Z,102895.07
2018-09-26T18:49:34.857Z,102904.10
2018-09-26T18:54:34.309Z,102911.30
2018-09-26T18:59:26.830Z,102917.11
2018-09-26T19:04:23.221Z,102921.22
2018-09-26T19:09:19.745Z,102914.68
2018-09-26T19:14:15.358Z,102910.27
2018-09-26T19:19:12.176Z,102912.59
2018-09-26T19:24:10.018Z,102916.05
2018-09-26T19:29:11.303Z,102917.09
2018-09-26T19:34:09.587Z,102928.97
2018-09-26T19:39:06.660Z,102931.48
2018-09-26T19:44:04.387Z,102918.61
2018-09-26T19:49:05.732Z,102924.58
2018-09-26T19:54:01.161Z,102914.55
2018-09-26T19:59:03.254Z,102921.16
2018-09-26T20:04:07.551Z,102931.55
2018-09-26T20:09:01.806Z,102932.66
2018-09-26T20:14:00.892Z,102937.36
2018-09-26T20:19:03.039Z,102939.05
2018-09-26T20:24:01.426Z,102935.05
2018-09-26T20:29:01.177Z,102936.38
2018-09-26T20:34:01.535Z,102928.98
2018-09-26T20:39:02.541Z,102931.22
2018-09-26T20:44:03.317Z,102927.17
2018-09-26T20:49:07.044Z,102918.75
2018-09-26T20:54:05.549Z,102922.59
2018-09-26T20:59:09.568Z,102923.94
2018-09-26T21:04:09.904Z,102919.35
2018-09-26T21:09:10.745Z,102931.43
2018-09-26T21:14:11.596Z,102933.26
2018-09-26T21:19:12.507Z,102936.18
2018-09-26T21:24:13.351Z,102930.75
2018-09-26T21:29:17.277Z,102946.44
2018-09-26T21:34:20.474Z,102953.78
2018-09-26T21:39:24.751Z,102953.03
2018-09-26T21:44:31.432Z,102946.56
2018-09-26T21:49:34.247Z,102944.36
2018-09-26T21:54:40.920Z,102939.52
2018-09-26T21:59:50.437Z,102943.32
2018-09-26T22:04:53.253Z,102929.83
2018-09-26T22:10:00.873Z,102930.67
2018-09-26T22:15:07.022Z,102929.19
2018-09-26T22:20:14.155Z,102930.52
2018-09-26T22:25:23.273Z,102938.13
2018-09-26T22:30:32.094Z,102940.45
2018-09-26T22:35:38.085Z,102931.16
2018-09-26T22:40:47.344Z,102935.55
2018-09-26T22:45:54.155Z,102929.83
2018-09-26T22:51:02.000Z,102921.55
2018-09-26T22:56:10.060Z,102923.31
2018-09-26T23:01:19.117Z,102923.99
2018-09-26T23:06:31.392Z,102913.90
2018-09-26T23:11:39.708Z,102919.41
2018-09-26T23:16:54.341Z,102919.15
2018-09-26T23:22:02.461Z,102898.83
2018-09-26T23:27:14.397Z,102898.99
2018-09-26T23:32:23.065Z,102899.51
2018-09-26T23:37:32.096Z,102899.60
2018-09-26T23:42:47.008Z,102891.23
2018-09-26T23:48:00.274Z,102907.48
2018-09-26T23:53:14.632Z,102899.83
2018-09-26T23:58:22.571Z,102900.73
